Time;durP1;ratioP1;P1;durP2;ratioP2;P2;SDS_P1;SDS_P2;PMS_P1;PMS_P2;Temp;Humidity;BMP_temperature;BMP_pressure;BME280_temperature;BME280_humidity;BME280_pressure;Samples;Min_cycle;Max_cycle;Signal;HPM_P1;HPM_P2
2022/01/15 00:00:58;;;;;;;190.90;62.93;;;;;;;1.55;100.00;103267.44;5050136;28;20028;-66
2022/01/15 00:03:24;;;;;;;187.93;61.73;;;;;;;1.55;100.00;103273.47;5060644;28;20063;-66
2022/01/15 00:05:49;;;;;;;239.60;64.57;;;;;;;1.53;100.00;103268.97;5069079;28;20048;-66
2022/01/15 00:08:15;;;;;;;202.30;62.43;;;;;;;1.55;100.00;103267.44;5069044;28;20036;-66
2022/01/15 00:10:40;;;;;;;206.40;63.03;;;;;;;1.54;100.00;103268.19;5069071;28;20025;-66
2022/01/15 00:13:10;;;;;;;210.73;64.23;;;;;;;1.49;100.00;103260.06;5069076;28;20435;-66
2022/01/15 00:15:41;;;;;;;280.63;66.20;;;;;;;1.43;100.00;103272.16;5066566;28;20028;-66
2022/01/15 00:18:12;;;;;;;209.63;62.55;;;;;;;1.44;100.00;103274.88;5068862;28;20039;-67
2022/01/15 00:20:38;;;;;;;;;;;;;;;1.44;100.00;103263.72;5069548;28;20093;-66
2022/01/15 00:23:03;;;;;;;189.47;57.17;;;;;;;1.40;100.00;103259.94;5068829;28;20159;-66
2022/01/15 00:25:30;;;;;;;186.20;58.17;;;;;;;1.42;100.00;103262.69;5068938;28;20067;-67
2022/01/15 00:27:57;;;;;;;200.03;58.53;;;;;;;1.37;100.00;103257.06;5058106;28;20341;-66
2022/01/15 00:30:22;;;;;;;189.67;57.93;;;;;;;1.39;100.00;103250.47;5048504;28;20056;-63
2022/01/15 00:32:48;;;;;;;212.93;58.60;;;;;;;1.39;100.00;103250.47;5051293;28;20417;-66
2022/01/15 00:35:15;;;;;;;195.60;56.50;;;;;;;1.37;100.00;103251.94;5065628;28;20017;-67
2022/01/15 00:37:41;;;;;;;195.40;56.73;;;;;;;1.33;100.00;103252.38;5060791;28;20035;-64
2022/01/15 00:40:10;;;;;;;218.97;56.70;;;;;;;1.30;100.00;103247.81;5049746;28;20017;-64
2022/01/15 00:42:37;;;;;;;200.33;55.37;;;;;;;1.31;100.00;103251.28;5049644;28;20017;-65
2022/01/15 00:45:10;;;;;;;200.60;53.07;;;;;;;1.30;100.00;103244.34;5054592;28;20518;-64
2022/01/15 00:47:35;;;;;;;209.00;56.23;;;;;;;1.30;100.00;103240.16;5049847;28;20029;-64
2022/01/15 00:50:02;;;;;;;206.70;56.17;;;;;;;1.30;100.00;103235.03;5063936;28;20384;-64
2022/01/15 00:52:28;;;;;;;258.57;59.33;;;;;;;1.29;100.00;103234.88;5068827;28;20048;-65
2022/01/15 00:54:54;;;;;;;262.13;61.13;;;;;;;1.25;100.00;103225.06;5067340;28;20101;-65
2022/01/15 00:57:20;;;;;;;203.17;56.20;;;;;;;1.24;100.00;103221.59;5068674;28;20040;-64
2022/01/15 00:59:45;;;;;;;205.90;56.57;;;;;;;1.25;100.00;103217.41;5060510;28;20021;-65
2022/01/15 01:02:10;;;;;;;220.03;57.43;;;;;;;1.25;100.00;103225.06;5053723;28;20036;-65
2022/01/15 01:04:36;;;;;;;246.57;58.47;;;;;;;1.24;100.00;103218.16;5053226;28;20038;-65
2022/01/15 01:07:02;;;;;;;245.20;58.23;;;;;;;1.23;100.00;103221.44;5053483;28;20069;-64
2022/01/15 01:09:40;;;;;;;243.10;59.53;;;;;;;1.24;100.00;103215.59;5054742;28;20055;-65
2022/01/15 01:12:22;;;;;;;219.47;56.70;;;;;;;1.26;100.00;103220.13;5053877;28;20029;-65
2022/01/15 01:20:23;;;;;;;215.67;56.27;;;;;;;1.25;100.00;103197.88;5072878;28;20032;-65
2022/01/15 01:25:19;;;;;;;200.83;54.53;;;;;;;1.24;100.00;103200.25;5073071;28;20037;-65
2022/01/15 01:27:49;;;;;;;216.93;57.20;;;;;;;1.23;100.00;103196.78;5072462;28;20515;-64
2022/01/15 01:32:57;;;;;;;258.30;60.23;;;;;;;1.21;100.00;103200.81;5072532;28;20483;-64
2022/01/15 01:36:05;;;;;;;189.50;51.67;;;;;;;1.23;100.00;103201.00;5072713;28;20433;-64
2022/01/15 01:38:53;;;;;;;224.63;53.73;;;;;;;1.23;100.00;103193.31;5067006;28;20051;-65
2022/01/15 01:41:07;;;;;;;215.67;52.90;;;;;;;1.18;100.00;103196.31;5054017;28;20025;-64
2022/01/15 01:48:46;;;;;;;190.50;50.60;;;;;;;1.14;100.00;103186.50;5067158;28;20170;-64
2022/01/15 01:51:29;;;;;;;208.43;52.73;;;;;;;1.15;100.00;103188.28;5071786;28;20028;-64
2022/01/15 01:53:55;;;;;;;237.53;52.57;;;;;;;1.08;100.00;103180.69;5069493;28;20048;-65
2022/01/15 01:56:20;;;;;;;269.43;56.27;;;;;;;1.07;100.00;103186.56;5059350;28;20024;-64
2022/01/15 01:58:47;;;;;;;217.03;53.53;;;;;;;1.05;100.00;103183.84;5056319;28;20033;-64
2022/01/15 02:01:12;;;;;;;189.57;50.87;;;;;;;1.05;100.00;103175.25;5068909;28;20024;-65
2022/01/15 02:03:38;;;;;;;191.47;51.10;;;;;;;1.06;100.00;103172.88;5052206;28;20512;-64
2022/01/15 02:06:04;;;;;;;170.53;47.10;;;;;;;1.05;100.00;103177.81;5052073;28;20076;-65
2022/01/15 02:08:33;;;;;;;175.97;49.97;;;;;;;1.09;100.00;103169.75;5052635;28;20037;-65
2022/01/15 02:11:02;;;;;;;197.73;47.63;;;;;;;1.07;100.00;103169.59;5052281;28;20100;-64
2022/01/15 02:13:27;;;;;;;173.00;48.60;;;;;;;1.07;100.00;103164.50;5052476;28;20025;-64
2022/01/15 02:15:56;;;;;;;162.80;44.43;;;;;;;1.06;100.00;103167.78;5052341;28;20031;-65
2022/01/15 02:18:21;;;;;;;182.20;49.00;;;;;;;1.08;100.00;103168.84;5052249;28;20694;-65
2022/01/15 02:25:59;;;;;;;171.07;46.90;;;;;;;1.01;100.00;103162.94;5052312;28;20067;-64
2022/01/15 02:28:30;;;;;;;231.83;51.87;;;;;;;1.00;100.00;103161.09;5057739;28;20035;-65
2022/01/15 02:30:58;;;;;;;189.52;49.35;;;;;;;1.01;100.00;103165.47;5051973;28;20444;-65
2022/01/15 02:33:24;;;;;;;188.23;51.07;;;;;;;1.02;100.00;103170.75;5051715;28;20021;-65
2022/01/15 02:35:51;;;;;;;200.17;49.83;;;;;;;1.05;100.00;103163.41;5062113;28;20070;-64
2022/01/15 02:38:20;;;;;;;207.30;50.30;;;;;;;1.05;100.00;103153.19;5071125;28;20028;-65
2022/01/15 02:40:45;;;;;;;200.57;50.47;;;;;;;1.03;100.00;103153.75;5069771;28;20025;-64
2022/01/15 02:43:18;;;;;;;183.17;50.27;;;;;;;1.01;100.00;103147.59;5071031;28;20029;-64
2022/01/15 02:45:53;;;;;;;194.47;50.33;;;;;;;1.03;100.00;103143.53;5070877;28;20119;-65
2022/01/15 02:48:19;;;;;;;204.73;54.07;;;;;;;1.02;100.00;103140.09;5070794;28;20045;-64
2022/01/15 02:50:46;;;;;;;188.10;49.80;;;;;;;1.01;100.00;103129.72;5071146;28;20059;-65
2022/01/15 02:53:16;;;;;;;190.60;49.70;;;;;;;1.00;100.00;103117.69;5070439;28;20090;-64
2022/01/15 02:55:42;;;;;;;179.97;47.83;;;;;;;0.99;100.00;103114.22;5069737;28;20028;-64
2022/01/15 02:58:08;;;;;;;169.10;49.23;;;;;;;1.00;100.00;103115.13;5066954;28;20488;-64
2022/01/15 03:00:34;;;;;;;191.10;49.13;;;;;;;0.87;100.00;103108.69;5069570;28;20085;-65
2022/01/15 03:02:59;;;;;;;184.83;50.00;;;;;;;0.87;100.00;103110.34;5070678;28;20024;-65
2022/01/15 03:05:24;;;;;;;173.20;46.73;;;;;;;0.80;100.00;103111.31;5070190;28;20040;-65
2022/01/15 03:07:50;;;;;;;161.27;46.53;;;;;;;0.79;100.00;103105.31;5070571;28;20060;-65
2022/01/15 03:10:15;;;;;;;174.50;48.97;;;;;;;0.78;100.00;103107.69;5068912;28;20052;-64
2022/01/15 03:12:41;;;;;;;173.23;47.17;;;;;;;0.77;100.00;103091.50;5054861;28;20029;-64
2022/01/15 03:15:08;;;;;;;158.77;46.90;;;;;;;0.75;100.00;103089.50;5050969;28;20017;-64
2022/01/15 03:17:34;;;;;;;152.27;45.30;;;;;;;0.75;100.00;103085.31;5050888;28;20381;-65
2022/01/15 03:20:03;;;;;;;168.40;48.57;;;;;;;0.76;100.00;103093.84;5050797;28;20522;-66
2022/01/15 03:22:28;;;;;;;174.27;49.57;;;;;;;0.79;100.00;103086.53;5050397;28;20350;-65
2022/01/15 03:24:53;;;;;;;162.50;44.83;;;;;;;0.78;100.00;103088.19;5052745;28;20078;-65
2022/01/15 03:27:23;;;;;;;164.53;47.03;;;;;;;0.79;100.00;103082.31;5051675;28;20087;-65
2022/01/15 03:29:49;;;;;;;163.57;46.60;;;;;;;0.79;100.00;103078.88;5050799;28;20039;-65
2022/01/15 03:32:14;;;;;;;180.50;49.93;;;;;;;0.79;100.00;103084.00;5050982;28;20107;-65
2022/01/15 03:34:40;;;;;;;201.80;50.50;;;;;;;0.78;100.00;103082.16;5050683;28;20100;-64
2022/01/15 03:37:05;;;;;;;180.30;50.53;;;;;;;0.81;100.00;103083.41;5049294;28;20017;-65
2022/01/15 03:39:30;;;;;;;189.87;50.87;;;;;;;0.80;100.00;103075.59;5050770;28;20024;-65
2022/01/15 03:41:56;;;;;;;215.23;53.37;;;;;;;0.76;100.00;103083.63;5050488;28;20052;-65
2022/01/15 03:44:21;;;;;;;182.17;50.17;;;;;;;0.77;100.00;103075.25;5059224;28;20504;-65
2022/01/15 03:46:46;;;;;;;171.17;48.93;;;;;;;0.78;100.00;103083.06;5069449;28;20035;-64
2022/01/15 03:49:12;;;;;;;198.10;50.80;;;;;;;0.78;100.00;103082.16;5069833;28;20392;-65
2022/01/15 03:51:37;;;;;;;179.40;51.43;;;;;;;0.79;100.00;103069.56;5069786;28;20027;-65
2022/01/15 03:54:03;;;;;;;168.00;46.90;;;;;;;0.81;100.00;103069.75;5067143;28;20025;-65
2022/01/15 03:56:30;;;;;;;150.00;43.93;;;;;;;0.80;100.00;103071.38;5065819;28;20048;-65
2022/01/15 03:58:56;;;;;;;151.23;44.53;;;;;;;0.78;100.00;103066.84;5068964;28;20174;-65
2022/01/15 04:01:21;;;;;;;120.60;37.30;;;;;;;0.75;100.00;103067.44;5109752;28;20111;-65
2022/01/15 04:03:47;;;;;;;128.53;39.30;;;;;;;0.73;100.00;103071.47;5109619;28;20028;-65
2022/01/15 04:06:12;;;;;;;107.13;38.30;;;;;;;0.69;100.00;103062.56;5109723;28;20058;-65
2022/01/15 04:08:37;;;;;;;114.77;38.97;;;;;;;0.71;100.00;103057.63;5110191;28;20042;-65
2022/01/15 04:11:03;;;;;;;129.93;42.67;;;;;;;0.70;100.00;103054.16;5109845;28;20120;-65
2022/01/15 04:13:28;;;;;;;113.57;40.27;;;;;;;0.74;100.00;103059.63;5109845;28;20575;-65
2022/01/15 04:15:54;;;;;;;138.27;41.77;;;;;;;0.68;100.00;103048.00;5109830;28;20043;-65
2022/01/15 04:18:21;;;;;;;137.67;42.50;;;;;;;0.70;100.00;103048.16;5109745;28;20391;-65
2022/01/15 04:20:47;;;;;;;145.73;44.20;;;;;;;0.73;100.00;103042.47;5109547;28;20029;-65
2022/01/15 04:23:13;;;;;;;139.47;43.23;;;;;;;0.76;100.00;103032.59;5109097;28;20020;-65
2022/01/15 04:25:38;;;;;;;147.03;43.87;;;;;;;0.76;100.00;103030.03;5086492;28;20026;-65
2022/01/15 04:28:08;;;;;;;136.27;41.60;;;;;;;0.75;100.00;103033.34;5093455;28;20036;-65
2022/01/15 04:30:34;;;;;;;120.17;40.10;;;;;;;0.78;100.00;103026.00;5092382;28;20096;-65
2022/01/15 04:32:59;;;;;;;135.07;41.67;;;;;;;0.77;100.00;103040.44;5089829;28;20475;-65
2022/01/15 04:35:24;;;;;;;136.20;43.53;;;;;;;0.78;100.00;103031.09;5089096;28;20016;-66
2022/01/15 04:37:54;;;;;;;129.47;40.77;;;;;;;0.78;100.00;103031.09;5090144;28;20024;-65
2022/01/15 04:40:19;;;;;;;130.87;39.73;;;;;;;0.75;100.00;103018.94;5090023;28;20024;-65
2022/01/15 04:42:45;;;;;;;137.53;41.10;;;;;;;0.75;100.00;103020.56;5089998;28;20503;-65
2022/01/15 04:45:11;;;;;;;126.77;39.20;;;;;;;0.76;100.00;103018.19;5089921;28;20102;-64
2022/01/15 04:47:37;;;;;;;113.33;39.57;;;;;;;0.78;100.00;103020.91;5089698;28;20031;-65
2022/01/15 04:50:07;;;;;;;118.93;38.47;;;;;;;0.78;100.00;103010.69;5109453;28;20020;-65
2022/01/15 04:52:34;;;;;;;114.10;38.17;;;;;;;0.80;100.00;103015.22;5109755;28;20511;-65
2022/01/15 04:55:01;;;;;;;116.17;35.53;;;;;;;0.76;100.00;103007.97;5107743;28;20031;-65
2022/01/15 04:57:27;;;;;;;109.40;37.27;;;;;;;0.78;100.00;103003.03;5109382;28;20023;-65
2022/01/15 04:59:53;;;;;;;116.10;38.40;;;;;;;0.75;100.00;103001.06;5109457;28;20031;-66
2022/01/15 05:02:18;;;;;;;101.07;35.77;;;;;;;0.77;100.00;103006.34;5109393;28;20019;-65
2022/01/15 05:04:43;;;;;;;109.63;37.30;;;;;;;0.78;100.00;103005.56;5106508;28;20391;-65
2022/01/15 05:07:09;;;;;;;106.80;36.80;;;;;;;0.77;100.00;102999.59;5095861;28;20504;-65
2022/01/15 05:09:34;;;;;;;117.27;38.60;;;;;;;0.78;100.00;103003.94;5091905;28;20027;-65
2022/01/15 05:12:09;;;;;;;119.00;41.23;;;;;;;0.78;100.00;103000.47;5101512;28;20107;-65
2022/01/15 05:14:35;;;;;;;105.87;39.17;;;;;;;0.77;100.00;102998.66;5089682;28;20012;-64
2022/01/15 05:17:02;;;;;;;116.73;41.10;;;;;;;0.77;100.00;102994.47;5071506;28;20030;-65
2022/01/15 05:19:27;;;;;;;111.90;39.23;;;;;;;0.78;100.00;102995.38;5089575;28;20028;-65
2022/01/15 05:21:55;;;;;;;111.00;40.00;;;;;;;0.78;100.00;102990.25;5089599;28;20020;-65
2022/01/15 05:24:20;;;;;;;105.30;40.13;;;;;;;0.80;100.00;102988.78;5075393;28;20052;-65
2022/01/15 05:26:46;;;;;;;121.10;42.23;;;;;;;0.78;100.00;102986.06;5093863;28;20481;-65
2022/01/15 05:29:11;;;;;;;107.37;40.00;;;;;;;0.77;100.00;102983.34;5109308;28;20024;-65
2022/01/15 05:31:36;;;;;;;101.07;38.87;;;;;;;0.77;100.00;102983.34;5108935;28;20024;-66
2022/01/15 05:34:02;;;;;;;103.30;38.97;;;;;;;0.70;100.00;102971.59;5108848;28;20106;-65
2022/01/15 05:36:27;;;;;;;112.47;40.27;;;;;;;0.73;100.00;102976.09;5108635;28;20023;-65
2022/01/15 05:38:52;;;;;;;105.97;40.87;;;;;;;0.73;100.00;102973.56;5093151;28;20031;-66
2022/01/15 05:41:18;;;;;;;118.07;42.47;;;;;;;0.74;100.00;102963.50;5098160;28;20480;-65
2022/01/15 05:43:43;;;;;;;107.10;41.50;;;;;;;0.74;100.00;102965.16;5089248;28;20500;-65
2022/01/15 05:46:08;;;;;;;111.37;39.07;;;;;;;0.73;100.00;102954.03;5091509;28;20102;-65
2022/01/15 05:48:34;;;;;;;101.93;37.47;;;;;;;0.73;100.00;102946.38;5092922;28;20043;-65
2022/01/15 05:50:59;;;;;;;97.50;39.17;;;;;;;0.71;100.00;102953.88;5093169;28;20172;-65
2022/01/15 05:53:24;;;;;;;109.93;41.63;;;;;;;0.73;100.00;102950.56;5093426;28;20497;-65
2022/01/15 05:55:50;;;;;;;109.00;40.43;;;;;;;0.74;100.00;102947.31;5093298;28;20795;-65
2022/01/15 05:58:15;;;;;;;115.93;43.90;;;;;;;0.75;100.00;102938.88;5092546;28;20138;-65
2022/01/15 06:00:40;;;;;;;112.43;41.00;;;;;;;0.76;100.00;102943.25;5092903;28;20023;-65
2022/01/15 06:03:06;;;;;;;123.03;42.60;;;;;;;0.74;100.00;102943.06;5092835;28;20048;-65
2022/01/15 06:05:31;;;;;;;116.53;40.43;;;;;;;0.73;100.00;102930.16;5092356;28;20119;-65
2022/01/15 06:07:56;;;;;;;130.43;43.37;;;;;;;0.73;100.00;102935.25;5093804;28;20567;-65
2022/01/15 06:10:22;;;;;;;124.03;43.63;;;;;;;0.71;100.00;102943.69;5074549;28;20024;-65
2022/01/15 06:12:47;;;;;;;121.23;42.63;;;;;;;0.73;100.00;102931.06;5098404;27;20035;-65
2022/01/15 06:15:14;;;;;;;134.73;43.97;;;;;;;0.71;100.00;102932.56;5096617;28;20023;-64
2022/01/15 06:17:41;;;;;;;140.73;44.40;;;;;;;0.69;100.00;102940.06;5098877;28;20022;-65
2022/01/15 06:20:07;;;;;;;157.40;44.83;;;;;;;0.66;100.00;102937.19;5092298;28;20020;-65
2022/01/15 06:22:33;;;;;;;140.70;45.63;;;;;;;0.65;100.00;102930.25;5092313;28;20024;-65
2022/01/15 06:24:58;;;;;;;134.60;44.60;;;;;;;0.69;100.00;102926.38;5102418;28;20373;-66
2022/01/15 06:27:23;;;;;;;162.63;46.17;;;;;;;0.66;100.00;102926.97;5093756;28;20034;-65
2022/01/15 06:29:49;;;;;;;133.87;42.80;;;;;;;0.62;100.00;102932.47;5092366;28;20112;-65
2022/01/15 06:32:14;;;;;;;154.07;42.77;;;;;;;0.60;100.00;102923.75;5092454;28;20020;-65
2022/01/15 06:34:39;;;;;;;152.63;42.13;;;;;;;0.61;100.00;102915.38;5094281;28;20059;-64
2022/01/15 06:37:05;;;;;;;130.10;39.17;;;;;;;0.61;100.00;102925.59;5100789;28;20420;-65
2022/01/15 06:39:34;;;;;;;156.87;41.63;;;;;;;0.61;100.00;102915.38;5110243;28;20024;-65
2022/01/15 06:42:00;;;;;;;132.23;40.63;;;;;;;0.63;100.00;102918.97;5092060;28;20107;-65
2022/01/15 06:44:26;;;;;;;188.43;44.97;;;;;;;0.61;100.00;102917.91;5090655;28;20020;-65
2022/01/15 06:46:52;;;;;;;161.80;44.40;;;;;;;0.60;100.00;102911.00;5111710;28;20371;-65
2022/01/15 06:49:17;;;;;;;156.10;42.83;;;;;;;0.63;100.00;102912.97;5099311;28;20030;-65
2022/01/15 06:51:43;;;;;;;172.70;46.87;;;;;;;0.62;100.00;102914.63;5110192;28;20027;-65
2022/01/15 06:54:09;;;;;;;172.80;46.77;;;;;;;0.63;100.00;102912.97;5098348;28;20438;-65
2022/01/15 06:56:34;;;;;;;173.33;46.50;;;;;;;0.65;100.00;102911.50;5098736;27;20484;-65
2022/01/15 06:59:00;;;;;;;183.40;44.43;;;;;;;0.64;100.00;102913.13;5091968;28;20062;-66
2022/01/15 07:01:25;;;;;;;158.97;43.50;;;;;;;0.66;100.00;102914.22;5091537;28;20430;-65
2022/01/15 07:03:50;;;;;;;163.07;44.87;;;;;;;0.68;100.00;102916.91;5099939;27;20546;-64
2022/01/15 07:06:16;;;;;;;163.97;44.90;;;;;;;0.68;100.00;102916.91;5091115;28;20419;-65
2022/01/15 07:08:41;;;;;;;149.60;42.07;;;;;;;0.63;100.00;102913.84;5093405;28;20034;-65
2022/01/15 07:11:06;;;;;;;148.23;42.80;;;;;;;0.64;100.00;102914.78;5091389;28;20408;-65
2022/01/15 07:13:33;;;;;;;159.13;44.20;;;;;;;0.59;100.00;102915.19;5091393;28;20024;-65
2022/01/15 07:15:58;;;;;;;132.10;41.90;;;;;;;0.60;100.00;102913.53;5091581;28;20016;-65
2022/01/15 07:18:24;;;;;;;117.07;36.47;;;;;;;0.60;100.00;102913.53;5091386;28;20020;-64
2022/01/15 07:20:51;;;;;;;109.80;34.57;;;;;;;0.58;100.00;102920.13;5091027;28;20039;-64
2022/01/15 07:23:16;;;;;;;115.57;34.40;;;;;;;0.53;100.00;102911.06;5090977;28;20028;-64
2022/01/15 07:25:42;;;;;;;118.57;33.87;;;;;;;0.46;100.00;102918.09;5091002;28;20020;-65
2022/01/15 07:28:07;;;;;;;150.63;33.03;;;;;;;0.38;100.00;102911.25;5091245;28;20519;-64
2022/01/15 07:30:32;;;;;;;130.23;33.27;;;;;;;0.33;100.00;102912.41;5091185;28;20051;-64
2022/01/15 07:32:58;;;;;;;111.23;31.67;;;;;;;0.34;100.00;102907.47;5091190;28;20104;-64
2022/01/15 07:35:23;;;;;;;92.57;30.50;;;;;;;0.34;100.00;102914.25;5097605;28;20024;-65
2022/01/15 07:37:48;;;;;;;117.10;34.63;;;;;;;0.31;100.00;102914.81;5110437;28;20028;-64
2022/01/15 07:40:14;;;;;;;105.03;31.93;;;;;;;0.32;100.00;102910.59;5110090;28;20027;-64
2022/01/15 07:42:40;;;;;;;104.73;32.20;;;;;;;0.33;100.00;102908.22;5095439;28;20020;-64
2022/01/15 07:45:11;;;;;;;109.23;31.97;;;;;;;0.34;100.00;102912.56;5090750;28;20051;-65
2022/01/15 07:47:37;;;;;;;;;;;;;;;0.37;100.00;102912.00;5090984;28;20016;-64
2022/01/15 07:50:09;;;;;;;104.80;32.40;;;;;;;0.40;100.00;102909.78;5090316;28;19914;-65
2022/01/15 07:52:35;;;;;;;108.33;30.70;;;;;;;0.40;100.00;102919.97;5089608;28;20380;-65
2022/01/15 07:55:00;;;;;;;110.43;30.57;;;;;;;0.37;100.00;102923.84;5090216;28;20056;-65
2022/01/15 07:57:26;;;;;;;92.40;30.50;;;;;;;0.34;100.00;102921.88;5075731;28;20094;-65
2022/01/15 07:59:52;;;;;;;100.47;31.67;;;;;;;0.34;100.00;102924.44;5095537;28;20081;-66
2022/01/15 08:02:17;;;;;;;83.13;28.20;;;;;;;0.30;100.00;102923.19;5090267;28;20031;-65
2022/01/15 08:04:43;;;;;;;94.50;30.20;;;;;;;0.28;100.00;102919.59;5089543;28;20040;-65
2022/01/15 08:07:11;;;;;;;92.23;28.87;;;;;;;0.24;100.00;102922.53;5089919;28;20012;-64
2022/01/15 08:09:37;;;;;;;132.13;29.13;;;;;;;0.15;100.00;102922.44;5090109;28;20107;-64
2022/01/15 08:12:03;;;;;;;120.77;27.87;;;;;;;0.10;100.00;102914.31;5090609;28;20463;-64
2022/01/15 08:14:29;;;;;;;108.53;28.60;;;;;;;0.03;100.00;102911.84;5090287;28;20020;-64
2022/01/15 08:16:54;;;;;;;116.37;30.20;;;;;;;0.06;100.00;102913.78;5090290;28;20041;-64
2022/01/15 08:19:20;;;;;;;76.43;26.53;;;;;;;0.04;100.00;102915.25;5089972;28;20027;-64
2022/01/15 08:21:45;;;;;;;70.30;27.37;;;;;;;0.04;100.00;102908.53;5123746;27;20023;-65
2022/01/15 08:24:11;;;;;;;123.27;33.23;;;;;;;0.08;100.00;102917.41;5130072;27;20479;-64
2022/01/15 08:26:36;;;;;;;123.90;32.97;;;;;;;0.10;100.00;102918.50;5124970;27;20027;-64
2022/01/15 08:29:03;;;;;;;138.37;33.27;;;;;;;0.07;100.00;102913.94;5109777;28;20050;-64
2022/01/15 08:31:28;;;;;;;99.90;31.87;;;;;;;0.10;100.00;102903.19;5109657;28;20051;-63
2022/01/15 08:33:54;;;;;;;216.43;42.70;;;;;;;0.08;100.00;102902.13;5109613;28;20103;-64
2022/01/15 08:36:20;;;;;;;148.07;40.40;;;;;;;0.07;100.00;102907.97;5105698;28;20020;-64
2022/01/15 08:38:46;;;;;;;146.50;34.57;;;;;;;0.02;100.00;102911.66;5123870;27;20482;-64
2022/01/15 08:41:13;;;;;;;72.07;31.30;;;;;;;0.04;100.00;102913.63;5122875;27;20031;-64
2022/01/15 08:43:39;;;;;;;159.50;43.87;;;;;;;-0.03;100.00;102906.97;5130028;27;20943;-65
2022/01/15 08:46:04;;;;;;;141.07;38.37;;;;;;;-0.11;100.00;102911.97;5130131;27;20057;-64
2022/01/15 08:48:30;;;;;;;101.37;35.47;;;;;;;-0.14;100.00;102913.44;5130241;28;20102;-64
2022/01/15 08:50:55;;;;;;;142.57;39.33;;;;;;;-0.21;100.00;102907.50;5129655;28;20098;-64
2022/01/15 08:53:21;;;;;;;141.37;38.87;;;;;;;-0.23;100.00;102906.44;5129988;28;20031;-64
2022/01/15 08:55:47;;;;;;;115.20;37.77;;;;;;;-0.24;100.00;102910.63;5130107;28;20586;-64
2022/01/15 08:58:12;;;;;;;98.73;35.30;;;;;;;-0.19;100.00;102913.69;5130038;28;20113;-65
2022/01/15 09:00:38;;;;;;;158.47;40.13;;;;;;;-0.16;100.00;102914.00;5130245;28;20094;-64
2022/01/15 09:03:06;;;;;;;97.60;37.33;;;;;;;-0.18;100.00;102912.97;5129615;28;20031;-64
2022/01/15 09:05:34;;;;;;;113.60;39.57;;;;;;;-0.17;100.00;102907.09;5126929;28;20512;-63
2022/01/15 09:08:00;;;;;;;108.63;37.73;;;;;;;-0.17;100.00;102908.03;5123045;28;20020;-64
2022/01/15 09:10:25;;;;;;;103.47;38.10;;;;;;;-0.22;100.00;102903.16;5130207;28;20025;-64
2022/01/15 09:12:50;;;;;;;97.47;39.30;;;;;;;-0.19;100.00;102911.13;5129597;28;20423;-63
2022/01/15 09:15:16;;;;;;;108.93;40.27;;;;;;;-0.20;100.00;102899.13;5129589;28;20460;-63
2022/01/15 09:17:42;;;;;;;119.90;39.17;;;;;;;-0.21;100.00;102894.75;5129901;28;20015;-64
2022/01/15 09:20:08;;;;;;;123.53;39.63;;;;;;;-0.25;100.00;102904.63;5130342;27;20420;-64
2022/01/15 09:22:34;;;;;;;129.50;38.80;;;;;;;-0.24;100.00;102903.00;5133767;27;20023;-64
2022/01/15 09:25:00;;;;;;;100.73;38.23;;;;;;;-0.22;100.00;102892.97;5134027;27;20052;-64
2022/01/15 09:30:12;;;;;;;98.27;37.77;;;;;;;-0.31;100.00;102891.22;5130219;27;20618;-64
2022/01/15 09:32:39;;;;;;;117.17;40.33;;;;;;;-0.33;100.00;102885.06;5115567;27;20371;-64
2022/01/15 09:35:04;;;;;;;122.47;40.07;;;;;;;-0.32;100.00;102883.38;5133488;27;20023;-64
2022/01/15 09:37:30;;;;;;;92.90;38.10;;;;;;;-0.31;100.00;102872.47;5127075;27;20030;-64
2022/01/15 09:39:57;;;;;;;91.97;37.63;;;;;;;-0.33;100.00;102873.94;5133425;27;20023;-64
2022/01/15 09:42:22;;;;;;;123.47;41.33;;;;;;;-0.35;100.00;102870.31;5133036;27;20027;-64
2022/01/15 09:44:48;;;;;;;86.63;36.87;;;;;;;-0.31;100.00;102873.38;5133207;27;20016;-64
2022/01/15 09:47:15;;;;;;;103.00;39.83;;;;;;;-0.26;100.00;102871.31;5133379;27;20490;-64
2022/01/15 09:49:45;;;;;;;117.40;40.80;;;;;;;-0.21;100.00;102877.81;5133099;27;20023;-65
2022/01/15 09:52:11;;;;;;;94.67;39.47;;;;;;;-0.19;100.00;102868.72;5133211;27;20490;-64
2022/01/15 09:54:38;;;;;;;125.33;41.63;;;;;;;-0.22;100.00;102872.56;5120166;27;20455;-65
2022/01/15 09:57:04;;;;;;;134.83;42.47;;;;;;;-0.26;100.00;102877.34;5129613;27;20031;-64
2022/01/15 09:59:29;;;;;;;132.33;42.83;;;;;;;-0.27;100.00;102872.97;5127984;27;20533;-64
2022/01/15 10:01:57;;;;;;;147.47;42.93;;;;;;;-0.28;100.00;102877.91;5130171;27;20023;-64
2022/01/15 10:04:23;;;;;;;115.17;41.13;;;;;;;-0.23;100.00;102875.88;5132818;27;20023;-64
2022/01/15 10:07:07;;;;;;;131.80;44.63;;;;;;;-0.17;100.00;102876.50;5132410;27;20050;-64
2022/01/15 10:09:33;;;;;;;110.37;41.93;;;;;;;-0.17;100.00;102876.50;5099540;27;20147;-65
2022/01/15 10:11:58;;;;;;;166.97;45.07;;;;;;;-0.17;100.00;102881.63;5112689;27;20024;-64
2022/01/15 10:14:29;;;;;;;119.97;42.00;;;;;;;-0.13;100.00;102878.66;5114146;27;20391;-65
2022/01/15 10:16:57;;;;;;;116.90;43.72;;;;;;;-0.11;100.00;102877.19;5133170;27;20480;-64
2022/01/15 10:19:34;;;;;;;127.60;43.80;;;;;;;-0.07;100.00;102884.41;5119682;27;20046;-64
2022/01/15 10:22:08;;;;;;;147.53;46.00;;;;;;;-0.05;100.00;102877.84;5125667;27;20030;-64
2022/01/15 10:24:35;;;;;;;148.40;45.47;;;;;;;0.01;100.00;102876.69;5100418;27;20035;-64
2022/01/15 10:27:22;;;;;;;128.43;44.07;;;;;;;0.06;100.00;102880.66;5132633;27;20050;-64
2022/01/15 10:29:59;;;;;;;147.07;46.17;;;;;;;0.08;100.00;102869.88;5132642;27;20039;-64
2022/01/15 10:32:27;;;;;;;132.07;45.20;;;;;;;0.13;100.00;102867.81;5132580;27;20102;-64
2022/01/15 10:34:52;;;;;;;139.40;47.17;;;;;;;0.06;100.00;102861.16;5132706;27;20348;-63
2022/01/15 10:37:24;;;;;;;146.70;46.17;;;;;;;0.08;100.00;102859.69;5132455;27;20022;-64
2022/01/15 10:40:08;;;;;;;146.60;47.43;;;;;;;0.14;100.00;102850.88;5132172;27;20269;-64
2022/01/15 10:42:35;;;;;;;194.10;50.37;;;;;;;0.15;100.00;102851.03;5113796;27;20023;-64
2022/01/15 10:45:09;;;;;;;174.10;49.13;;;;;;;0.15;100.00;102853.59;5132612;27;20487;-64
2022/01/15 10:47:42;;;;;;;144.93;44.53;;;;;;;0.14;100.00;102859.44;5129238;27;20055;-64
2022/01/15 10:50:09;;;;;;;133.10;45.23;;;;;;;0.14;100.00;102859.44;5132198;27;20026;-64
2022/01/15 10:52:34;;;;;;;140.20;45.30;;;;;;;0.17;100.00;102853.75;5129502;27;20560;-64
2022/01/15 10:55:10;;;;;;;165.90;48.07;;;;;;;0.11;100.00;102848.88;5114339;27;20020;-64
2022/01/15 10:57:36;;;;;;;120.27;43.13;;;;;;;0.14;100.00;102848.31;5124874;27;20027;-64
2022/01/15 11:00:15;;;;;;;139.33;45.50;;;;;;;0.11;100.00;102847.25;5131712;27;20026;-64
2022/01/15 11:02:52;;;;;;;150.07;46.80;;;;;;;0.15;100.00;102847.56;5131895;27;20034;-64
2022/01/15 11:05:39;;;;;;;142.53;45.73;;;;;;;0.15;100.00;102845.94;5131334;27;20463;-64
2022/01/15 11:08:11;;;;;;;149.77;45.33;;;;;;;0.16;100.00;102836.66;5131709;27;20023;-64
2022/01/15 11:10:43;;;;;;;133.40;43.27;;;;;;;0.21;100.00;102833.84;5131660;27;20072;-64
2022/01/15 11:13:10;;;;;;;176.05;43.70;;;;;;;0.18;100.00;102830.06;5131511;27;20030;-64
2022/01/15 11:15:36;;;;;;;134.73;43.77;;;;;;;0.14;100.00;102833.94;5112979;27;20019;-64
2022/01/15 11:18:03;;;;;;;128.67;43.20;;;;;;;0.09;100.00;102830.88;5125084;27;20092;-64
2022/01/15 11:20:33;;;;;;;130.13;44.17;;;;;;;0.11;100.00;102824.31;5125815;27;20106;-65
2022/01/15 11:23:03;;;;;;;140.93;46.20;;;;;;;0.16;100.00;102829.00;5124676;27;20362;-64
2022/01/15 11:25:29;;;;;;;125.73;42.73;;;;;;;0.19;100.00;102821.66;5131468;27;20069;-64